sensor_id;sensor_type;location;lat;lon;timestamp;P1;durP1;ratioP1;P2;durP2;ratioP2
7116;SDS011;3600;48.568;7.870;2022-11-15T00:00:55;8.40;;;4.77;;
7116;SDS011;3600;48.568;7.870;2022-11-15T00:03:25;5.30;;;4.77;;
7116;SDS011;3600;48.568;7.870;2022-11-15T00:05:53;5.23;;;4.63;;
7116;SDS011;3600;48.568;7.870;2022-11-15T00:08:20;8.00;;;4.60;;
7116;SDS011;3600;48.568;7.870;2022-11-15T00:10:57;6.10;;;4.63;;
7116;SDS011;3600;48.568;7.870;2022-11-15T00:13:25;5.93;;;4.77;;
7116;SDS011;3600;48.568;7.870;2022-11-15T00:15:52;5.10;;;4.60;;
7116;SDS011;3600;48.568;7.870;2022-11-15T00:18:22;5.03;;;4.53;;
7116;SDS011;3600;48.568;7.870;2022-11-15T00:20:49;4.63;;;4.23;;
7116;SDS011;3600;48.568;7.870;2022-11-15T00:23:18;7.33;;;4.43;;
7116;SDS011;3600;48.568;7.870;2022-11-15T00:25:45;4.18;;;3.88;;
7116;SDS011;3600;48.568;7.870;2022-11-15T00:28:12;4.50;;;4.00;;
7116;SDS011;3600;48.568;7.870;2022-11-15T00:30:39;4.70;;;4.20;;
7116;SDS011;3600;48.568;7.870;2022-11-15T00:33:06;4.83;;;4.17;;
7116;SDS011;3600;48.568;7.870;2022-11-15T00:35:33;5.93;;;4.27;;
7116;SDS011;3600;48.568;7.870;2022-11-15T00:38:01;4.25;;;3.85;;
7116;SDS011;3600;48.568;7.870;2022-11-15T00:40:28;5.20;;;4.20;;
7116;SDS011;3600;48.568;7.870;2022-11-15T00:42:55;4.67;;;4.27;;
7116;SDS011;3600;48.568;7.870;2022-11-15T00:45:22;4.67;;;4.17;;
7116;SDS011;3600;48.568;7.870;2022-11-15T00:47:50;5.35;;;4.30;;
7116;SDS011;3600;48.568;7.870;2022-11-15T00:50:17;5.37;;;4.87;;
7116;SDS011;3600;48.568;7.870;2022-11-15T00:52:44;5.43;;;4.68;;
7116;SDS011;3600;48.568;7.870;2022-11-15T00:55:15;6.20;;;5.05;;
7116;SDS011;3600;48.568;7.870;2022-11-15T00:57:43;6.27;;;5.03;;
7116;SDS011;3600;48.568;7.870;2022-11-15T01:00:10;5.00;;;4.50;;
7116;SDS011;3600;48.568;7.870;2022-11-15T01:02:38;5.53;;;4.97;;
7116;SDS011;3600;48.568;7.870;2022-11-15T01:05:05;5.15;;;4.47;;
7116;SDS011;3600;48.568;7.870;2022-11-15T01:07:32;10.02;;;5.78;;
7116;SDS011;3600;48.568;7.870;2022-11-15T01:09:59;6.18;;;4.35;;
7116;SDS011;3600;48.568;7.870;2022-11-15T01:12:26;5.27;;;4.77;;
7116;SDS011;3600;48.568;7.870;2022-11-15T01:14:53;7.20;;;5.40;;
7116;SDS011;3600;48.568;7.870;2022-11-15T01:17:20;5.10;;;4.60;;
7116;SDS011;3600;48.568;7.870;2022-11-15T01:19:47;5.28;;;4.75;;
7116;SDS011;3600;48.568;7.870;2022-11-15T01:22:14;5.70;;;4.80;;
7116;SDS011;3600;48.568;7.870;2022-11-15T01:24:41;6.00;;;4.97;;
7116;SDS011;3600;48.568;7.870;2022-11-15T01:27:08;6.40;;;5.05;;
7116;SDS011;3600;48.568;7.870;2022-11-15T01:29:35;6.40;;;5.10;;
7116;SDS011;3600;48.568;7.870;2022-11-15T01:32:02;5.18;;;4.78;;
7116;SDS011;3600;48.568;7.870;2022-11-15T01:34:28;7.60;;;5.50;;
7116;SDS011;3600;48.568;7.870;2022-11-15T01:36:55;5.82;;;5.13;;
7116;SDS011;3600;48.568;7.870;2022-11-15T01:39:22;5.65;;;5.13;;
7116;SDS011;3600;48.568;7.870;2022-11-15T01:41:48;5.15;;;4.63;;
7116;SDS011;3600;48.568;7.870;2022-11-15T01:47:01;5.50;;;4.67;;
7116;SDS011;3600;48.568;7.870;2022-11-15T01:49:30;6.17;;;4.93;;
7116;SDS011;3600;48.568;7.870;2022-11-15T01:52:00;5.50;;;5.00;;
7116;SDS011;3600;48.568;7.870;2022-11-15T01:54:28;6.38;;;5.47;;
7116;SDS011;3600;48.568;7.870;2022-11-15T01:56:57;5.75;;;5.15;;
7116;SDS011;3600;48.568;7.870;2022-11-15T01:59:27;6.03;;;5.10;;
7116;SDS011;3600;48.568;7.870;2022-11-15T02:01:55;5.60;;;5.05;;
7116;SDS011;3600;48.568;7.870;2022-11-15T02:04:28;5.63;;;4.78;;
7116;SDS011;3600;48.568;7.870;2022-11-15T02:07:08;5.60;;;4.93;;
7116;SDS011;3600;48.568;7.870;2022-11-15T02:09:38;5.60;;;5.10;;
7116;SDS011;3600;48.568;7.870;2022-11-15T02:12:06;5.33;;;4.90;;
7116;SDS011;3600;48.568;7.870;2022-11-15T02:14:35;5.00;;;4.55;;
7116;SDS011;3600;48.568;7.870;2022-11-15T02:31:41;5.05;;;4.45;;
7116;SDS011;3600;48.568;7.870;2022-11-15T02:34:28;6.00;;;5.10;;
7116;SDS011;3600;48.568;7.870;2022-11-15T02:37:23;5.13;;;4.63;;
7116;SDS011;3600;48.568;7.870;2022-11-15T02:40:13;5.57;;;5.07;;
7116;SDS011;3600;48.568;7.870;2022-11-15T02:42:54;6.93;;;5.15;;
7116;SDS011;3600;48.568;7.870;2022-11-15T02:45:46;6.25;;;5.03;;
7116;SDS011;3600;48.568;7.870;2022-11-15T02:48:17;8.47;;;5.23;;
7116;SDS011;3600;48.568;7.870;2022-11-15T02:50:45;5.53;;;4.90;;
7116;SDS011;3600;48.568;7.870;2022-11-15T02:53:13;5.43;;;4.72;;
7116;SDS011;3600;48.568;7.870;2022-11-15T02:55:43;6.07;;;5.03;;
7116;SDS011;3600;48.568;7.870;2022-11-15T03:06:45;6.15;;;5.00;;
7116;SDS011;3600;48.568;7.870;2022-11-15T03:09:34;5.82;;;5.20;;
7116;SDS011;3600;48.568;7.870;2022-11-15T03:12:10;5.37;;;4.87;;
7116;SDS011;3600;48.568;7.870;2022-11-15T03:14:48;5.10;;;4.63;;
7116;SDS011;3600;48.568;7.870;2022-11-15T03:17:28;5.03;;;4.60;;
7116;SDS011;3600;48.568;7.870;2022-11-15T03:20:04;7.10;;;5.10;;
7116;SDS011;3600;48.568;7.870;2022-11-15T03:22:34;4.87;;;4.47;;
7116;SDS011;3600;48.568;7.870;2022-11-15T03:25:04;6.40;;;5.03;;
7116;SDS011;3600;48.568;7.870;2022-11-15T03:27:35;4.90;;;4.38;;
7116;SDS011;3600;48.568;7.870;2022-11-15T03:30:06;4.83;;;4.03;;
7116;SDS011;3600;48.568;7.870;2022-11-15T03:32:35;4.50;;;4.10;;
7116;SDS011;3600;48.568;7.870;2022-11-15T03:35:09;4.45;;;4.05;;
7116;SDS011;3600;48.568;7.870;2022-11-15T03:40:38;4.50;;;4.20;;
7116;SDS011;3600;48.568;7.870;2022-11-15T03:43:15;4.88;;;4.38;;
7116;SDS011;3600;48.568;7.870;2022-11-15T03:46:28;5.07;;;3.60;;
7116;SDS011;3600;48.568;7.870;2022-11-15T03:49:04;5.23;;;4.50;;
7116;SDS011;3600;48.568;7.870;2022-11-15T03:51:43;5.93;;;4.65;;
7116;SDS011;3600;48.568;7.870;2022-11-15T03:54:11;5.47;;;4.47;;
7116;SDS011;3600;48.568;7.870;2022-11-15T03:56:38;5.77;;;4.43;;
7116;SDS011;3600;48.568;7.870;2022-11-15T03:59:05;6.55;;;4.38;;
7116;SDS011;3600;48.568;7.870;2022-11-15T04:01:34;6.53;;;4.55;;
7116;SDS011;3600;48.568;7.870;2022-11-15T04:04:01;5.45;;;4.60;;
7116;SDS011;3600;48.568;7.870;2022-11-15T04:06:28;4.55;;;4.15;;
7116;SDS011;3600;48.568;7.870;2022-11-15T04:08:55;4.68;;;4.28;;
7116;SDS011;3600;48.568;7.870;2022-11-15T04:11:21;4.97;;;4.47;;
7116;SDS011;3600;48.568;7.870;2022-11-15T04:13:48;5.00;;;4.50;;
7116;SDS011;3600;48.568;7.870;2022-11-15T04:16:15;6.70;;;4.03;;
7116;SDS011;3600;48.568;7.870;2022-11-15T04:18:41;5.15;;;4.28;;
7116;SDS011;3600;48.568;7.870;2022-11-15T04:21:08;7.00;;;4.40;;
7116;SDS011;3600;48.568;7.870;2022-11-15T04:23:54;4.53;;;4.15;;
7116;SDS011;3600;48.568;7.870;2022-11-15T04:26:21;4.43;;;4.03;;
7116;SDS011;3600;48.568;7.870;2022-11-15T04:28:49;4.82;;;4.00;;
7116;SDS011;3600;48.568;7.870;2022-11-15T04:31:34;3.88;;;3.58;;
7116;SDS011;3600;48.568;7.870;2022-11-15T04:34:01;4.43;;;4.03;;
7116;SDS011;3600;48.568;7.870;2022-11-15T04:36:27;6.15;;;3.90;;
7116;SDS011;3600;48.568;7.870;2022-11-15T04:39:13;3.58;;;3.25;;
7116;SDS011;3600;48.568;7.870;2022-11-15T04:41:40;3.60;;;3.30;;
7116;SDS011;3600;48.568;7.870;2022-11-15T04:44:06;4.20;;;3.77;;
7116;SDS011;3600;48.568;7.870;2022-11-15T04:46:33;4.03;;;3.60;;
7116;SDS011;3600;48.568;7.870;2022-11-15T04:49:00;3.58;;;3.28;;
7116;SDS011;3600;48.568;7.870;2022-11-15T04:51:26;5.03;;;4.00;;
7116;SDS011;3600;48.568;7.870;2022-11-15T04:53:53;3.88;;;3.58;;
7116;SDS011;3600;48.568;7.870;2022-11-15T04:56:20;3.60;;;3.30;;
7116;SDS011;3600;48.568;7.870;2022-11-15T04:58:50;6.53;;;3.60;;
7116;SDS011;3600;48.568;7.870;2022-11-15T05:01:17;3.63;;;3.33;;
7116;SDS011;3600;48.568;7.870;2022-11-15T05:03:44;4.72;;;3.38;;
7116;SDS011;3600;48.568;7.870;2022-11-15T05:06:29;4.05;;;3.60;;
7116;SDS011;3600;48.568;7.870;2022-11-15T05:08:56;4.68;;;3.58;;
7116;SDS011;3600;48.568;7.870;2022-11-15T05:11:23;4.00;;;3.60;;
7116;SDS011;3600;48.568;7.870;2022-11-15T05:13:50;5.88;;;3.97;;
7116;SDS011;3600;48.568;7.870;2022-11-15T05:16:17;3.80;;;3.50;;
7116;SDS011;3600;48.568;7.870;2022-11-15T05:18:43;3.92;;;3.53;;
7116;SDS011;3600;48.568;7.870;2022-11-15T05:21:11;4.80;;;3.63;;
7116;SDS011;3600;48.568;7.870;2022-11-15T05:23:40;4.43;;;4.03;;
7116;SDS011;3600;48.568;7.870;2022-11-15T05:26:07;4.18;;;3.78;;
7116;SDS011;3600;48.568;7.870;2022-11-15T05:28:35;4.10;;;3.70;;
7116;SDS011;3600;48.568;7.870;2022-11-15T05:31:06;4.80;;;3.88;;
7116;SDS011;3600;48.568;7.870;2022-11-15T05:33:35;3.67;;;3.38;;
7116;SDS011;3600;48.568;7.870;2022-11-15T05:36:07;4.10;;;3.70;;
7116;SDS011;3600;48.568;7.870;2022-11-15T05:38:40;4.15;;;3.80;;
7116;SDS011;3600;48.568;7.870;2022-11-15T05:41:07;4.85;;;4.45;;
7116;SDS011;3600;48.568;7.870;2022-11-15T05:43:35;8.23;;;6.57;;
7116;SDS011;3600;48.568;7.870;2022-11-15T05:46:04;6.40;;;5.80;;
7116;SDS011;3600;48.568;7.870;2022-11-15T05:48:33;5.65;;;5.15;;
7116;SDS011;3600;48.568;7.870;2022-11-15T05:51:01;5.57;;;5.07;;
7116;SDS011;3600;48.568;7.870;2022-11-15T05:53:30;6.07;;;4.97;;
7116;SDS011;3600;48.568;7.870;2022-11-15T05:55:58;5.82;;;5.30;;
7116;SDS011;3600;48.568;7.870;2022-11-15T05:58:25;5.60;;;5.07;;
7116;SDS011;3600;48.568;7.870;2022-11-15T06:00:52;5.10;;;4.57;;
7116;SDS011;3600;48.568;7.870;2022-11-15T06:03:20;5.60;;;4.32;;
7116;SDS011;3600;48.568;7.870;2022-11-15T06:05:47;4.78;;;4.28;;
7116;SDS011;3600;48.568;7.870;2022-11-15T06:08:14;4.80;;;4.05;;
7116;SDS011;3600;48.568;7.870;2022-11-15T06:10:40;4.38;;;4.00;;
7116;SDS011;3600;48.568;7.870;2022-11-15T06:13:07;4.22;;;3.80;;
7116;SDS011;3600;48.568;7.870;2022-11-15T06:15:34;4.72;;;3.80;;
7116;SDS011;3600;48.568;7.870;2022-11-15T06:18:01;4.82;;;3.83;;
7116;SDS011;3600;48.568;7.870;2022-11-15T06:20:28;4.65;;;4.25;;
7116;SDS011;3600;48.568;7.870;2022-11-15T06:22:59;4.93;;;4.43;;
7116;SDS011;3600;48.568;7.870;2022-11-15T06:25:27;4.40;;;3.38;;
7116;SDS011;3600;48.568;7.870;2022-11-15T06:27:55;3.92;;;3.63;;
7116;SDS011;3600;48.568;7.870;2022-11-15T06:30:24;3.97;;;3.63;;
7116;SDS011;3600;48.568;7.870;2022-11-15T06:32:58;3.83;;;3.53;;
7116;SDS011;3600;48.568;7.870;2022-11-15T06:35:26;3.92;;;3.63;;
7116;SDS011;3600;48.568;7.870;2022-11-15T06:37:53;5.07;;;3.80;;
7116;SDS011;3600;48.568;7.870;2022-11-15T06:40:19;4.32;;;3.92;;
7116;SDS011;3600;48.568;7.870;2022-11-15T06:42:46;4.22;;;3.83;;
7116;SDS011;3600;48.568;7.870;2022-11-15T06:45:13;5.22;;;4.72;;
7116;SDS011;3600;48.568;7.870;2022-11-15T06:47:46;5.18;;;4.38;;
7116;SDS011;3600;48.568;7.870;2022-11-15T06:50:13;5.35;;;4.60;;
7116;SDS011;3600;48.568;7.870;2022-11-15T06:52:40;4.65;;;4.25;;
7116;SDS011;3600;48.568;7.870;2022-11-15T06:55:07;4.13;;;3.72;;
7116;SDS011;3600;48.568;7.870;2022-11-15T06:57:34;6.15;;;4.22;;
7116;SDS011;3600;48.568;7.870;2022-11-15T07:00:05;5.40;;;4.90;;
7116;SDS011;3600;48.568;7.870;2022-11-15T07:02:32;5.38;;;4.88;;
7116;SDS011;3600;48.568;7.870;2022-11-15T07:04:59;5.63;;;5.10;;
7116;SDS011;3600;48.568;7.870;2022-11-15T07:07:25;5.47;;;4.97;;
7116;SDS011;3600;48.568;7.870;2022-11-15T07:09:52;5.90;;;5.40;;
7116;SDS011;3600;48.568;7.870;2022-11-15T07:12:19;5.80;;;5.18;;
7116;SDS011;3600;48.568;7.870;2022-11-15T07:14:46;5.97;;;5.00;;
7116;SDS011;3600;48.568;7.870;2022-11-15T07:17:12;5.65;;;5.15;;
7116;SDS011;3600;48.568;7.870;2022-11-15T07:19:39;7.65;;;5.38;;
7116;SDS011;3600;48.568;7.870;2022-11-15T07:22:06;6.38;;;4.72;;
7116;SDS011;3600;48.568;7.870;2022-11-15T07:24:33;5.38;;;4.15;;
7116;SDS011;3600;48.568;7.870;2022-11-15T07:26:59;4.95;;;4.45;;
7116;SDS011;3600;48.568;7.870;2022-11-15T07:29:26;5.20;;;4.75;;
7116;SDS011;3600;48.568;7.870;2022-11-15T07:31:53;5.38;;;4.78;;
7116;SDS011;3600;48.568;7.870;2022-11-15T07:34:20;5.72;;;5.15;;
7116;SDS011;3600;48.568;7.870;2022-11-15T07:36:47;5.13;;;4.63;;
7116;SDS011;3600;48.568;7.870;2022-11-15T07:39:14;5.18;;;4.47;;
7116;SDS011;3600;48.568;7.870;2022-11-15T07:41:40;5.22;;;4.72;;
7116;SDS011;3600;48.568;7.870;2022-11-15T07:44:07;5.53;;;4.97;;
7116;SDS011;3600;48.568;7.870;2022-11-15T07:46:34;7.43;;;5.10;;
7116;SDS011;3600;48.568;7.870;2022-11-15T07:49:01;5.68;;;5.18;;
7116;SDS011;3600;48.568;7.870;2022-11-15T07:51:27;6.47;;;5.30;;
7116;SDS011;3600;48.568;7.870;2022-11-15T07:53:54;5.68;;;5.07;;
7116;SDS011;3600;48.568;7.870;2022-11-15T07:56:21;5.07;;;4.68;;
7116;SDS011;3600;48.568;7.870;2022-11-15T07:58:48;5.22;;;4.72;;
7116;SDS011;3600;48.568;7.870;2022-11-15T08:01:16;5.70;;;5.07;;
7116;SDS011;3600;48.568;7.870;2022-11-15T08:03:43;5.82;;;4.82;;
7116;SDS011;3600;48.568;7.870;2022-11-15T08:06:09;5.05;;;4.55;;
7116;SDS011;3600;48.568;7.870;2022-11-15T08:08:36;5.53;;;4.95;;
7116;SDS011;3600;48.568;7.870;2022-11-15T08:11:03;4.90;;;4.40;;
7116;SDS011;3600;48.568;7.870;2022-11-15T08:13:30;5.95;;;5.18;;
7116;SDS011;3600;48.568;7.870;2022-11-15T08:16:01;5.15;;;4.63;;
7116;SDS011;3600;48.568;7.870;2022-11-15T08:18:31;6.07;;;4.03;;
7116;SDS011;3600;48.568;7.870;2022-11-15T08:20:59;4.80;;;4.30;;
7116;SDS011;3600;48.568;7.870;2022-11-15T08:23:27;4.82;;;3.88;;
7116;SDS011;3600;48.568;7.870;2022-11-15T08:25:58;4.65;;;4.25;;
7116;SDS011;3600;48.568;7.870;2022-11-15T08:28:28;5.15;;;4.13;;
7116;SDS011;3600;48.568;7.870;2022-11-15T08:30:55;4.20;;;3.80;;
7116;SDS011;3600;48.568;7.870;2022-11-15T08:33:22;6.65;;;4.00;;
7116;SDS011;3600;48.568;7.870;2022-11-15T08:35:49;5.40;;;4.22;;
7116;SDS011;3600;48.568;7.870;2022-11-15T08:38:16;5.15;;;4.53;;
7116;SDS011;3600;48.568;7.870;2022-11-15T08:40:42;5.53;;;4.32;;
7116;SDS011;3600;48.568;7.870;2022-11-15T08:43:09;5.13;;;3.80;;
7116;SDS011;3600;48.568;7.870;2022-11-15T08:45:36;4.80;;;4.32;;
7116;SDS011;3600;48.568;7.870;2022-11-15T08:48:02;6.43;;;4.20;;
7116;SDS011;3600;48.568;7.870;2022-11-15T08:50:30;3.92;;;3.55;;
7116;SDS011;3600;48.568;7.870;2022-11-15T08:52:57;4.65;;;4.22;;
7116;SDS011;3600;48.568;7.870;2022-11-15T08:55:24;3.60;;;3.30;;
7116;SDS011;3600;48.568;7.870;2022-11-15T08:57:50;4.90;;;4.20;;
7116;SDS011;3600;48.568;7.870;2022-11-15T09:00:17;4.78;;;4.07;;
7116;SDS011;3600;48.568;7.870;2022-11-15T09:02:46;4.57;;;3.85;;
7116;SDS011;3600;48.568;7.870;2022-11-15T09:05:12;5.35;;;4.03;;
7116;SDS011;3600;48.568;7.870;2022-11-15T09:07:39;4.20;;;3.80;;
7116;SDS011;3600;48.568;7.870;2022-11-15T09:10:06;5.55;;;3.53;;
7116;SDS011;3600;48.568;7.870;2022-11-15T09:12:33;3.90;;;3.53;;
7116;SDS011;3600;48.568;7.870;2022-11-15T09:15:00;4.05;;;3.75;;
7116;SDS011;3600;48.568;7.870;2022-11-15T09:17:26;4.53;;;3.63;;
7116;SDS011;3600;48.568;7.870;2022-11-15T09:19:53;4.30;;;3.90;;
7116;SDS011;3600;48.568;7.870;2022-11-15T09:22:20;4.05;;;3.75;;
7116;SDS011;3600;48.568;7.870;2022-11-15T09:24:47;6.60;;;4.00;;
7116;SDS011;3600;48.568;7.870;2022-11-15T09:27:13;5.18;;;3.67;;
7116;SDS011;3600;48.568;7.870;2022-11-15T09:29:40;4.38;;;3.80;;
7116;SDS011;3600;48.568;7.870;2022-11-15T09:32:07;4.07;;;3.72;;
7116;SDS011;3600;48.568;7.870;2022-11-15T09:34:33;4.03;;;3.67;;
7116;SDS011;3600;48.568;7.870;2022-11-15T09:37:00;4.28;;;3.88;;
7116;SDS011;3600;48.568;7.870;2022-11-15T09:39:27;4.25;;;3.95;;
7116;SDS011;3600;48.568;7.870;2022-11-15T09:41:57;4.75;;;3.70;;
7116;SDS011;3600;48.568;7.870;2022-11-15T09:44:38;5.22;;;3.80;;
7116;SDS011;3600;48.568;7.870;2022-11-15T09:50:09;5.57;;;4.60;;
7116;SDS011;3600;48.568;7.870;2022-11-15T09:52:43;4.38;;;3.97;;
7116;SDS011;3600;48.568;7.870;2022-11-15T09:55:11;5.65;;;4.13;;
7116;SDS011;3600;48.568;7.870;2022-11-15T09:57:49;4.00;;;3.60;;
7116;SDS011;3600;48.568;7.870;2022-11-15T10:00:32;4.03;;;3.72;;
7116;SDS011;3600;48.568;7.870;2022-11-15T10:05:54;4.40;;;4.00;;
7116;SDS011;3600;48.568;7.870;2022-11-15T10:08:28;9.02;;;4.00;;
7116;SDS011;3600;48.568;7.870;2022-11-15T10:11:22;4.20;;;3.80;;
7116;SDS011;3600;48.568;7.870;2022-11-15T10:14:26;3.88;;;3.47;;
7116;SDS011;3600;48.568;7.870;2022-11-15T10:17:02;5.03;;;3.55;;
7116;SDS011;3600;48.568;7.870;2022-11-15T10:19:51;3.60;;;3.20;;
7116;SDS011;3600;48.568;7.870;2022-11-15T10:27:43;3.53;;;3.22;;
7116;SDS011;3600;48.568;7.870;2022-11-15T10:30:14;4.57;;;3.55;;
7116;SDS011;3600;48.568;7.870;2022-11-15T10:32:43;3.53;;;3.25;;
7116;SDS011;3600;48.568;7.870;2022-11-15T10:35:18;3.67;;;3.38;;
7116;SDS011;3600;48.568;7.870;2022-11-15T10:40:51;4.85;;;3.97;;
7116;SDS011;3600;48.568;7.870;2022-11-15T10:43:33;6.03;;;4.75;;
7116;SDS011;3600;48.568;7.870;2022-11-15T10:46:04;4.47;;;4.03;;
7116;SDS011;3600;48.568;7.870;2022-11-15T10:49:18;4.47;;;4.03;;
7116;SDS011;3600;48.568;7.870;2022-11-15T10:52:12;4.50;;;4.10;;
7116;SDS011;3600;48.568;7.870;2022-11-15T10:54:44;4.10;;;3.40;;
7116;SDS011;3600;48.568;7.870;2022-11-15T10:57:15;4.10;;;3.80;;
7116;SDS011;3600;48.568;7.870;2022-11-15T11:00:06;4.38;;;3.83;;
7116;SDS011;3600;48.568;7.870;2022-11-15T11:02:40;4.35;;;3.45;;
7116;SDS011;3600;48.568;7.870;2022-11-15T11:05:40;4.15;;;3.75;;
7116;SDS011;3600;48.568;7.870;2022-11-15T11:10:38;4.95;;;3.97;;
7116;SDS011;3600;48.568;7.870;2022-11-15T11:16:08;4.53;;;3.63;;
7116;SDS011;3600;48.568;7.870;2022-11-15T11:21:25;3.13;;;2.92;;
7116;SDS011;3600;48.568;7.870;2022-11-15T11:32:09;3.10;;;2.90;;
7116;SDS011;3600;48.568;7.870;2022-11-15T11:37:29;7.47;;;3.53;;
7116;SDS011;3600;48.568;7.870;2022-11-15T11:46:13;3.13;;;2.40;;
7116;SDS011;3600;48.568;7.870;2022-11-15T11:48:50;5.30;;;2.45;;
7116;SDS011;3600;48.568;7.870;2022-11-15T11:51:44;2.97;;;2.78;;
7116;SDS011;3600;48.568;7.870;2022-11-15T11:54:33;2.97;;;2.70;;
7116;SDS011;3600;48.568;7.870;2022-11-15T11:57:32;2.67;;;2.47;;
7116;SDS011;3600;48.568;7.870;2022-11-15T12:06:02;4.55;;;3.38;;
7116;SDS011;3600;48.568;7.870;2022-11-15T12:15:02;4.82;;;3.35;;
7116;SDS011;3600;48.568;7.870;2022-11-15T12:17:40;3.47;;;2.92;;
7116;SDS011;3600;48.568;7.870;2022-11-15T12:20:18;3.30;;;3.00;;
7116;SDS011;3600;48.568;7.870;2022-11-15T12:25:25;6.10;;;2.80;;
7116;SDS011;3600;48.568;7.870;2022-11-15T12:28:11;3.22;;;2.92;;
7116;SDS011;3600;48.568;7.870;2022-11-15T12:31:03;3.22;;;2.92;;
7116;SDS011;3600;48.568;7.870;2022-11-15T12:33:42;3.10;;;2.80;;
7116;SDS011;3600;48.568;7.870;2022-11-15T12:38:56;2.88;;;2.65;;
7116;SDS011;3600;48.568;7.870;2022-11-15T12:41:28;4.30;;;2.70;;
7116;SDS011;3600;48.568;7.870;2022-11-15T12:44:12;3.63;;;2.92;;
7116;SDS011;3600;48.568;7.870;2022-11-15T13:02:29;3.05;;;2.75;;
7116;SDS011;3600;48.568;7.870;2022-11-15T13:17:44;4.07;;;3.42;;
7116;SDS011;3600;48.568;7.870;2022-11-15T13:22:48;4.75;;;3.30;;
7116;SDS011;3600;48.568;7.870;2022-11-15T13:30:41;3.92;;;3.58;;
7116;SDS011;3600;48.568;7.870;2022-11-15T13:38:59;4.15;;;3.80;;
7116;SDS011;3600;48.568;7.870;2022-11-15T13:41:47;3.30;;;3.00;;
7116;SDS011;3600;48.568;7.870;2022-11-15T13:44:25;4.93;;;3.05;;
7116;SDS011;3600;48.568;7.870;2022-11-15T13:47:01;3.22;;;2.80;;
7116;SDS011;3600;48.568;7.870;2022-11-15T13:49:41;3.85;;;3.20;;
7116;SDS011;3600;48.568;7.870;2022-11-15T13:52:10;3.33;;;2.97;;
7116;SDS011;3600;48.568;7.870;2022-11-15T13:57:25;4.10;;;3.78;;
7116;SDS011;3600;48.568;7.870;2022-11-15T13:59:56;3.50;;;3.20;;
7116;SDS011;3600;48.568;7.870;2022-11-15T14:02:27;3.83;;;3.53;;
7116;SDS011;3600;48.568;7.870;2022-11-15T14:05:04;3.38;;;2.78;;
7116;SDS011;3600;48.568;7.870;2022-11-15T14:07:52;3.67;;;3.28;;
7116;SDS011;3600;48.568;7.870;2022-11-15T14:12:57;3.35;;;3.10;;
7116;SDS011;3600;48.568;7.870;2022-11-15T14:15:27;5.13;;;3.58;;
7116;SDS011;3600;48.568;7.870;2022-11-15T14:17:58;3.90;;;3.50;;
7116;SDS011;3600;48.568;7.870;2022-11-15T14:22:55;3.92;;;3.53;;
7116;SDS011;3600;48.568;7.870;2022-11-15T14:25:24;3.80;;;3.50;;
7116;SDS011;3600;48.568;7.870;2022-11-15T14:30:41;3.45;;;3.15;;
7116;SDS011;3600;48.568;7.870;2022-11-15T14:33:25;3.47;;;3.17;;
7116;SDS011;3600;48.568;7.870;2022-11-15T14:35:57;3.42;;;3.13;;
7116;SDS011;3600;48.568;7.870;2022-11-15T14:38:29;3.58;;;3.17;;
7116;SDS011;3600;48.568;7.870;2022-11-15T14:40:56;4.03;;;3.30;;
7116;SDS011;3600;48.568;7.870;2022-11-15T14:43:23;3.53;;;3.22;;
7116;SDS011;3600;48.568;7.870;2022-11-15T14:45:50;5.15;;;3.25;;
7116;SDS011;3600;48.568;7.870;2022-11-15T14:48:17;3.15;;;2.95;;
7116;SDS011;3600;48.568;7.870;2022-11-15T14:50:43;3.75;;;3.28;;
7116;SDS011;3600;48.568;7.870;2022-11-15T14:53:17;3.75;;;3.40;;
7116;SDS011;3600;48.568;7.870;2022-11-15T14:55:44;3.20;;;3.00;;
7116;SDS011;3600;48.568;7.870;2022-11-15T14:58:11;3.30;;;2.97;;
7116;SDS011;3600;48.568;7.870;2022-11-15T15:00:38;3.65;;;3.38;;
7116;SDS011;3600;48.568;7.870;2022-11-15T15:03:06;2.97;;;2.78;;
7116;SDS011;3600;48.568;7.870;2022-11-15T15:05:38;3.17;;;2.88;;
7116;SDS011;3600;48.568;7.870;2022-11-15T15:08:06;3.00;;;2.78;;
7116;SDS011;3600;48.568;7.870;2022-11-15T15:10:39;4.63;;;3.10;;
7116;SDS011;3600;48.568;7.870;2022-11-15T15:13:20;3.22;;;2.92;;
7116;SDS011;3600;48.568;7.870;2022-11-15T15:15:48;2.90;;;2.60;;
7116;SDS011;3600;48.568;7.870;2022-11-15T15:18:16;3.13;;;2.80;;
7116;SDS011;3600;48.568;7.870;2022-11-15T15:20:47;3.78;;;3.00;;
7116;SDS011;3600;48.568;7.870;2022-11-15T15:23:20;3.58;;;3.28;;
7116;SDS011;3600;48.568;7.870;2022-11-15T15:25:47;2.95;;;2.75;;
7116;SDS011;3600;48.568;7.870;2022-11-15T15:28:15;4.72;;;2.90;;
7116;SDS011;3600;48.568;7.870;2022-11-15T15:30:42;3.03;;;2.83;;
7116;SDS011;3600;48.568;7.870;2022-11-15T15:33:08;3.20;;;3.00;;
7116;SDS011;3600;48.568;7.870;2022-11-15T15:35:35;2.88;;;2.65;;
7116;SDS011;3600;48.568;7.870;2022-11-15T15:38:02;3.35;;;3.05;;
7116;SDS011;3600;48.568;7.870;2022-11-15T15:40:30;3.85;;;3.13;;
7116;SDS011;3600;48.568;7.870;2022-11-15T15:42:58;4.00;;;3.60;;
7116;SDS011;3600;48.568;7.870;2022-11-15T15:45:25;4.00;;;3.50;;
7116;SDS011;3600;48.568;7.870;2022-11-15T15:47:53;4.43;;;3.92;;
7116;SDS011;3600;48.568;7.870;2022-11-15T15:52:52;3.75;;;3.10;;
7116;SDS011;3600;48.568;7.870;2022-11-15T15:55:20;4.20;;;3.58;;
7116;SDS011;3600;48.568;7.870;2022-11-15T15:57:48;4.97;;;4.40;;
7116;SDS011;3600;48.568;7.870;2022-11-15T16:00:15;4.60;;;4.00;;
7116;SDS011;3600;48.568;7.870;2022-11-15T16:02:43;6.22;;;5.60;;
7116;SDS011;3600;48.568;7.870;2022-11-15T16:05:11;5.60;;;5.10;;
7116;SDS011;3600;48.568;7.870;2022-11-15T16:07:38;6.20;;;5.60;;
7116;SDS011;3600;48.568;7.870;2022-11-15T16:10:25;8.65;;;6.15;;
7116;SDS011;3600;48.568;7.870;2022-11-15T16:12:53;4.72;;;4.32;;
7116;SDS011;3600;48.568;7.870;2022-11-15T16:15:22;5.25;;;4.22;;
7116;SDS011;3600;48.568;7.870;2022-11-15T16:17:54;9.38;;;6.38;;
7116;SDS011;3600;48.568;7.870;2022-11-15T16:20:36;6.40;;;5.80;;
7116;SDS011;3600;48.568;7.870;2022-11-15T16:23:09;8.13;;;6.30;;
7116;SDS011;3600;48.568;7.870;2022-11-15T16:25:39;7.28;;;6.57;;
7116;SDS011;3600;48.568;7.870;2022-11-15T16:28:30;5.50;;;5.00;;
7116;SDS011;3600;48.568;7.870;2022-11-15T16:31:17;6.63;;;5.40;;
7116;SDS011;3600;48.568;7.870;2022-11-15T16:33:46;5.63;;;4.95;;
7116;SDS011;3600;48.568;7.870;2022-11-15T16:36:18;5.65;;;4.85;;
7116;SDS011;3600;48.568;7.870;2022-11-15T16:38:55;8.00;;;5.22;;
7116;SDS011;3600;48.568;7.870;2022-11-15T16:41:22;7.25;;;6.55;;
7116;SDS011;3600;48.568;7.870;2022-11-15T16:43:49;8.13;;;5.78;;
7116;SDS011;3600;48.568;7.870;2022-11-15T16:46:17;8.75;;;7.85;;
7116;SDS011;3600;48.568;7.870;2022-11-15T16:48:46;11.15;;;7.70;;
7116;SDS011;3600;48.568;7.870;2022-11-15T16:51:13;9.13;;;7.43;;
7116;SDS011;3600;48.568;7.870;2022-11-15T16:53:41;7.28;;;6.47;;
7116;SDS011;3600;48.568;7.870;2022-11-15T16:56:13;9.48;;;6.63;;
7116;SDS011;3600;48.568;7.870;2022-11-15T16:58:47;6.93;;;6.00;;
7116;SDS011;3600;48.568;7.870;2022-11-15T17:01:16;6.32;;;5.60;;
7116;SDS011;3600;48.568;7.870;2022-11-15T17:04:12;9.43;;;7.53;;
7116;SDS011;3600;48.568;7.870;2022-11-15T17:06:40;11.05;;;9.18;;
7116;SDS011;3600;48.568;7.870;2022-11-15T17:09:17;21.35;;;14.32;;
7116;SDS011;3600;48.568;7.870;2022-11-15T17:11:45;10.68;;;8.40;;
7116;SDS011;3600;48.568;7.870;2022-11-15T17:14:12;10.32;;;8.18;;
7116;SDS011;3600;48.568;7.870;2022-11-15T17:16:39;9.80;;;7.07;;
7116;SDS011;3600;48.568;7.870;2022-11-15T17:19:14;8.98;;;6.70;;
7116;SDS011;3600;48.568;7.870;2022-11-15T17:21:42;9.23;;;7.68;;
7116;SDS011;3600;48.568;7.870;2022-11-15T17:24:10;9.98;;;7.97;;
7116;SDS011;3600;48.568;7.870;2022-11-15T17:26:37;8.38;;;7.57;;
7116;SDS011;3600;48.568;7.870;2022-11-15T17:29:06;8.77;;;7.32;;
7116;SDS011;3600;48.568;7.870;2022-11-15T17:31:36;8.55;;;7.40;;
7116;SDS011;3600;48.568;7.870;2022-11-15T17:34:03;10.65;;;8.82;;
7116;SDS011;3600;48.568;7.870;2022-11-15T17:36:31;13.32;;;10.10;;
7116;SDS011;3600;48.568;7.870;2022-11-15T17:38:58;10.05;;;8.70;;
7116;SDS011;3600;48.568;7.870;2022-11-15T17:41:26;9.75;;;7.65;;
7116;SDS011;3600;48.568;7.870;2022-11-15T17:43:57;10.10;;;7.45;;
7116;SDS011;3600;48.568;7.870;2022-11-15T17:46:25;9.23;;;7.72;;
7116;SDS011;3600;48.568;7.870;2022-11-15T17:48:53;7.70;;;6.97;;
7116;SDS011;3600;48.568;7.870;2022-11-15T17:51:21;9.68;;;7.70;;
7116;SDS011;3600;48.568;7.870;2022-11-15T17:53:49;7.65;;;6.93;;
7116;SDS011;3600;48.568;7.870;2022-11-15T17:56:17;8.80;;;6.85;;
7116;SDS011;3600;48.568;7.870;2022-11-15T17:58:49;8.35;;;6.70;;